createdAt,value
2018-02-13T00:02:28.324Z,11.75
2018-02-13T00:04:56.424Z,12.25
2018-02-13T00:07:24.451Z,12.98
2018-02-13T00:09:54.191Z,12.88
2018-02-13T00:12:22.212Z,12.52
2018-02-13T00:14:51.156Z,14.18
2018-02-13T00:17:21.088Z,13.00
2018-02-13T00:19:50.080Z,13.85
2018-02-13T00:22:18.136Z,13.93
2018-02-13T00:24:46.167Z,13.25
2018-02-13T00:27:14.179Z,13.52
2018-02-13T00:29:45.956Z,13.50
2018-02-13T00:32:14.771Z,13.95
2018-02-13T00:34:42.819Z,13.48
2018-02-13T00:37:13.552Z,12.50
2018-02-13T00:39:42.371Z,13.82
2018-02-13T00:42:15.652Z,15.38
2018-02-13T00:44:44.595Z,14.23
2018-02-13T00:47:16.927Z,14.02
2018-02-13T00:49:46.860Z,14.05
2018-02-13T00:52:15.781Z,13.50
2018-02-13T00:54:43.835Z,13.70
2018-02-13T00:57:11.856Z,15.00
2018-02-13T00:59:39.934Z,14.20
2018-02-13T01:02:08.902Z,14.98
2018-02-13T01:04:36.935Z,17.05
2018-02-13T01:07:09.384Z,15.82
2018-02-13T01:09:37.419Z,14.30
2018-02-13T01:12:07.185Z,15.25
2018-02-13T01:14:35.223Z,15.63
2018-02-13T01:17:05.143Z,16.08
2018-02-13T01:19:34.177Z,15.38
2018-02-13T01:22:02.193Z,15.65
2018-02-13T01:24:31.155Z,15.55
2018-02-13T01:26:59.194Z,15.75
2018-02-13T01:29:29.255Z,16.62
2018-02-13T01:31:58.943Z,14.02
2018-02-13T01:34:27.015Z,17.58
2018-02-13T01:36:58.671Z,14.52
2018-02-13T01:39:27.531Z,15.27
2018-02-13T01:41:56.484Z,16.27
2018-02-13T01:44:24.499Z,16.55
2018-02-13T01:46:52.543Z,16.60
2018-02-13T01:49:20.579Z,17.17
2018-02-13T01:51:49.379Z,16.35
2018-02-13T01:54:17.443Z,14.90
2018-02-13T01:56:45.471Z,17.35
2018-02-13T01:59:13.507Z,15.27
2018-02-13T02:01:44.643Z,14.32
2018-02-13T02:04:13.551Z,17.23
2018-02-13T02:06:43.503Z,15.15
2018-02-13T02:09:11.531Z,14.98
2018-02-13T02:11:45.235Z,17.73
2018-02-13T02:14:13.261Z,15.90
2018-02-13T02:16:42.063Z,15.20
2018-02-13T02:19:11.843Z,17.00
2018-02-13T02:21:40.763Z,16.95
2018-02-13T02:24:08.815Z,15.80
2018-02-13T02:26:38.595Z,16.17
2018-02-13T02:29:06.623Z,14.80
2018-02-13T02:31:35.611Z,15.50
2018-02-13T02:34:04.545Z,17.98
2018-02-13T02:36:36.512Z,16.15
2018-02-13T02:39:09.207Z,15.65
2018-02-13T02:41:38.199Z,15.55
2018-02-13T02:44:07.195Z,16.65
2018-02-13T02:46:37.973Z,16.80
2018-02-13T02:49:06.731Z,17.60
2018-02-13T02:51:36.785Z,18.45
2018-02-13T02:54:06.762Z,16.25
2018-02-13T02:56:36.547Z,17.40
2018-02-13T02:59:05.486Z,17.05
2018-02-13T03:01:33.495Z,16.83
2018-02-13T03:04:05.347Z,15.50
2018-02-13T03:06:37.239Z,15.15
2018-02-13T03:09:06.067Z,14.87
2018-02-13T03:11:34.103Z,14.40
2018-02-13T03:14:02.932Z,15.20
2018-02-13T03:16:31.995Z,16.45
2018-02-13T03:19:02.706Z,20.85
2018-02-13T03:21:32.735Z,17.45
2018-02-13T03:24:03.755Z,16.52
2018-02-13T03:26:32.676Z,17.73
2018-02-13T03:29:04.406Z,17.85
2018-02-13T03:31:32.423Z,15.73
2018-02-13T03:34:00.463Z,16.62
2018-02-13T03:36:31.227Z,16.35
2018-02-13T03:39:02.415Z,18.65
2018-02-13T03:41:30.510Z,15.63
2018-02-13T03:44:02.866Z,17.55
2018-02-13T03:46:31.879Z,17.95
2018-02-13T03:48:59.934Z,16.40
2018-02-13T03:51:27.950Z,17.00
2018-02-13T03:54:03.302Z,16.15
2018-02-13T03:56:34.622Z,17.52
2018-02-13T03:59:03.594Z,17.30
2018-02-13T04:01:33.618Z,16.48
2018-02-13T04:04:06.066Z,16.33
2018-02-13T04:06:35.067Z,16.02
2018-02-13T04:09:03.106Z,17.95
2018-02-13T04:11:34.596Z,17.40
2018-02-13T04:14:08.282Z,19.17
2018-02-13T04:16:40.134Z,16.45
2018-02-13T04:19:10.166Z,18.25
2018-02-13T04:21:38.202Z,20.40
2018-02-13T04:24:09.864Z,20.30
2018-02-13T04:26:37.889Z,21.52
2018-02-13T04:29:05.918Z,20.80
2018-02-13T04:31:33.942Z,21.83
2018-02-13T04:34:01.938Z,21.45
2018-02-13T04:36:30.862Z,22.87
2018-02-13T04:39:04.138Z,21.90
2018-02-13T04:41:32.166Z,21.60
2018-02-13T04:44:07.126Z,21.08
2018-02-13T04:46:36.126Z,19.52
2018-02-13T04:49:10.942Z,21.50
2018-02-13T04:51:42.008Z,20.58
2018-02-13T04:54:10.046Z,20.08
2018-02-13T04:56:38.114Z,20.40
2018-02-13T04:59:06.138Z,21.40
2018-02-13T05:01:38.280Z,18.95
2018-02-13T05:04:06.294Z,20.50
2018-02-13T05:06:34.314Z,19.50
2018-02-13T05:09:12.119Z,20.50
2018-02-13T05:11:41.100Z,20.55
2018-02-13T05:14:09.126Z,20.15
2018-02-13T05:16:38.054Z,19.65
2018-02-13T05:19:07.043Z,18.58
2018-02-13T05:21:40.514Z,18.35
2018-02-13T05:24:14.417Z,19.40
2018-02-13T05:26:46.726Z,19.23
2018-02-13T05:29:14.750Z,19.45
2018-02-13T05:31:44.657Z,19.67
2018-02-13T05:34:12.679Z,20.00
2018-02-13T05:36:40.699Z,21.00
2018-02-13T05:39:09.617Z,20.55
2018-02-13T05:41:37.630Z,22.25
2018-02-13T05:44:11.910Z,23.08
2018-02-13T05:46:41.834Z,19.58
2018-02-13T05:49:13.717Z,20.77
2018-02-13T05:51:42.501Z,21.20
2018-02-13T05:54:10.551Z,22.20
2018-02-13T05:56:53.497Z,22.77
2018-02-13T05:59:22.283Z,22.27
2018-02-13T06:01:51.291Z,21.08
2018-02-13T06:04:19.283Z,20.90
2018-02-13T06:06:48.217Z,21.40
2018-02-13T06:09:20.581Z,20.40
2018-02-13T06:11:55.270Z,21.70
2018-02-13T06:14:24.198Z,20.92
2018-02-13T06:16:54.234Z,19.60
2018-02-13T06:19:23.233Z,20.88
2018-02-13T06:21:53.025Z,18.75
2018-02-13T06:24:26.041Z,20.98
2018-02-13T06:27:02.438Z,20.02
2018-02-13T06:29:34.645Z,18.48
2018-02-13T06:32:07.434Z,20.35
2018-02-13T06:34:35.453Z,20.20
2018-02-13T06:37:07.061Z,20.42
2018-02-13T06:39:37.057Z,20.70
2018-02-13T06:42:07.069Z,19.67
2018-02-13T06:44:43.405Z,19.15
2018-02-13T06:47:15.505Z,19.37
2018-02-13T06:49:55.329Z,16.70
2018-02-13T06:52:24.345Z,20.25
2018-02-13T06:54:53.329Z,19.40
2018-02-13T06:57:27.781Z,16.85
2018-02-13T06:59:57.561Z,17.83
2018-02-13T07:02:25.573Z,18.58
2018-02-13T07:04:56.301Z,17.25
2018-02-13T07:07:29.149Z,17.67
2018-02-13T07:10:00.191Z,18.52
2018-02-13T07:12:30.213Z,20.12
2018-02-13T07:15:04.389Z,21.45
2018-02-13T07:17:32.433Z,24.15
2018-02-13T07:20:02.197Z,21.87
2018-02-13T07:22:30.209Z,23.52
2018-02-13T07:25:00.901Z,22.98
2018-02-13T07:27:36.025Z,24.92
2018-02-13T07:30:05.025Z,24.98
2018-02-13T07:32:33.045Z,21.80
2018-02-13T07:35:01.069Z,23.27
2018-02-13T07:37:29.097Z,21.98
2018-02-13T07:39:57.097Z,24.02
2018-02-13T07:42:25.115Z,23.83
2018-02-13T07:44:53.896Z,23.10
2018-02-13T07:47:22.669Z,21.80
2018-02-13T07:49:52.661Z,21.10
2018-02-13T07:52:24.308Z,20.95
2018-02-13T07:54:58.813Z,21.83
2018-02-13T07:57:33.161Z,21.17
2018-02-13T08:00:04.824Z,18.00
2018-02-13T08:02:32.841Z,17.90
2018-02-13T08:05:11.062Z,17.12
2018-02-13T08:07:40.134Z,15.40
2018-02-13T08:10:11.253Z,15.80
2018-02-13T08:12:46.789Z,13.55
2018-02-13T08:15:16.677Z,13.73
2018-02-13T08:17:48.241Z,14.00
2018-02-13T08:20:16.249Z,14.13
2018-02-13T08:22:54.797Z,12.98
2018-02-13T08:25:23.825Z,12.52
2018-02-13T08:27:56.689Z,13.55
2018-02-13T08:30:34.317Z,12.35
2018-02-13T08:33:06.769Z,12.25
2018-02-13T08:35:40.169Z,11.38
2018-02-13T08:38:12.224Z,11.90
2018-02-13T08:40:42.166Z,11.80
2018-02-13T08:43:11.089Z,11.82
2018-02-13T08:45:39.096Z,11.63
2018-02-13T08:48:08.109Z,11.02
2018-02-13T08:50:36.245Z,12.60
2018-02-13T08:53:04.981Z,12.77
2018-02-13T08:55:32.989Z,12.70
2018-02-13T08:58:01.005Z,13.85
2018-02-13T09:00:29.012Z,12.45
2018-02-13T09:03:14.071Z,13.40
2018-02-13T09:08:39.261Z,11.63
2018-02-13T09:11:14.588Z,12.25
2018-02-13T09:13:48.680Z,12.50
2018-02-13T09:16:16.704Z,11.45
2018-02-13T09:18:48.772Z,11.37
2018-02-13T09:21:17.582Z,12.67
2018-02-13T09:24:03.352Z,11.20
2018-02-13T09:29:30.180Z,10.40
2018-02-13T09:31:58.428Z,11.48
2018-02-13T09:34:28.368Z,11.45
2018-02-13T09:36:58.384Z,11.10
2018-02-13T09:39:38.813Z,11.70
2018-02-13T09:42:07.701Z,11.82
2018-02-13T09:44:37.368Z,11.40
2018-02-13T09:47:07.076Z,11.55
2018-02-13T09:49:37.748Z,11.00
2018-02-13T09:52:05.760Z,11.43
2018-02-13T09:54:35.672Z,12.60
2018-02-13T09:57:08.988Z,11.07
2018-02-13T09:59:37.780Z,11.10
2018-02-13T10:02:06.568Z,10.32
2018-02-13T10:04:35.356Z,9.73
2018-02-13T10:07:08.604Z,12.15
2018-02-13T10:09:38.640Z,12.40
2018-02-13T10:12:13.956Z,11.18
2018-02-13T10:14:42.892Z,11.95
2018-02-13T10:17:14.716Z,11.55
2018-02-13T10:19:46.492Z,10.90
2018-02-13T10:22:14.512Z,11.02
2018-02-13T10:24:42.524Z,11.10
2018-02-13T10:27:13.868Z,11.45
2018-02-13T10:29:43.784Z,11.10
2018-02-13T10:32:11.820Z,11.85
2018-02-13T10:34:40.840Z,10.80
2018-02-13T10:37:08.880Z,11.23
2018-02-13T10:39:36.908Z,11.32
2018-02-13T10:42:13.364Z,11.00
2018-02-13T10:44:43.148Z,9.77
2018-02-13T10:47:11.176Z,11.60
2018-02-13T10:49:42.832Z,10.23
2018-02-13T10:52:11.064Z,9.50
2018-02-13T10:54:45.033Z,10.10
2018-02-13T10:57:13.066Z,9.10
2018-02-13T10:59:41.888Z,10.88
2018-02-13T11:02:15.560Z,10.02
2018-02-13T11:04:44.356Z,9.65
2018-02-13T11:07:13.140Z,9.32
2018-02-13T11:09:47.300Z,9.63
2018-02-13T11:12:18.476Z,10.32
2018-02-13T11:14:51.120Z,9.20
2018-02-13T11:17:19.144Z,9.75
2018-02-13T11:19:48.139Z,10.35
2018-02-13T11:22:16.908Z,9.20
2018-02-13T11:24:49.452Z,9.25
2018-02-13T11:27:19.480Z,8.88
2018-02-13T11:29:48.408Z,9.15
2018-02-13T11:32:17.383Z,8.90
2018-02-13T11:34:45.344Z,8.70
2018-02-13T11:37:13.364Z,8.10
2018-02-13T11:39:41.380Z,8.13
2018-02-13T11:42:14.304Z,8.32
2018-02-13T11:44:43.248Z,7.37
2018-02-13T11:47:13.172Z,8.23
2018-02-13T11:49:42.148Z,8.25
2018-02-13T11:52:11.880Z,5.55
2018-02-13T11:54:44.404Z,5.90
2018-02-13T11:57:13.256Z,5.60
2018-02-13T11:59:43.940Z,7.22
2018-02-13T12:02:11.968Z,6.80
2018-02-13T12:04:41.740Z,6.82
2018-02-13T12:07:11.652Z,6.85
2018-02-13T12:09:39.664Z,7.80
2018-02-13T12:12:12.667Z,7.40
2018-02-13T12:14:55.092Z,8.77
2018-02-13T12:17:28.520Z,9.07
2018-02-13T12:19:56.559Z,9.20
2018-02-13T12:22:26.496Z,8.18
2018-02-13T12:24:55.544Z,6.70
2018-02-13T12:27:25.495Z,6.78
2018-02-13T12:29:53.476Z,6.65
2018-02-13T12:32:22.475Z,7.87
2018-02-13T12:34:54.652Z,8.18
2018-02-13T12:37:22.668Z,7.00
2018-02-13T12:39:56.276Z,7.68
2018-02-13T12:42:37.664Z,6.90
2018-02-13T12:45:08.831Z,7.40
2018-02-13T12:47:37.068Z,6.40
2018-02-13T12:50:05.092Z,5.87
2018-02-13T12:52:35.142Z,6.70
2018-02-13T12:55:03.152Z,6.95
2018-02-13T12:57:31.197Z,6.03
2018-02-13T13:00:01.199Z,4.87
2018-02-13T13:02:29.235Z,6.90
2018-02-13T13:04:58.212Z,6.22
2018-02-13T13:07:29.344Z,7.13
2018-02-13T13:09:57.368Z,4.07
2018-02-13T13:12:26.299Z,3.90
2018-02-13T13:15:00.041Z,4.90
2018-02-13T13:17:28.875Z,2.62
2018-02-13T13:19:57.788Z,2.45
2018-02-13T13:22:25.812Z,3.03
2018-02-13T13:24:55.812Z,2.92
2018-02-13T13:27:25.231Z,1.75
2018-02-13T13:30:11.307Z,1.65
2018-02-13T13:32:39.316Z,2.08
2018-02-13T13:35:10.748Z,2.30
2018-02-13T13:37:38.764Z,2.20
2018-02-13T13:40:06.792Z,2.47
2018-02-13T13:42:37.563Z,2.53
2018-02-13T13:45:06.627Z,2.70
2018-02-13T13:47:43.116Z,2.90
2018-02-13T13:50:13.228Z,2.72
2018-02-13T13:52:54.675Z,3.47
2018-02-13T13:55:23.035Z,3.22
2018-02-13T13:57:51.816Z,3.45
2018-02-13T14:00:21.807Z,3.87
2018-02-13T14:02:50.799Z,4.15
2018-02-13T14:05:20.708Z,3.90
2018-02-13T14:07:59.935Z,3.85
2018-02-13T14:10:28.955Z,3.92
2018-02-13T14:12:56.980Z,4.00
2018-02-13T14:15:30.399Z,3.58
2018-02-13T14:18:00.427Z,3.20
2018-02-13T14:20:31.877Z,2.95
2018-02-13T14:23:02.932Z,4.20
2018-02-13T14:25:30.972Z,3.47
2018-02-13T14:28:05.267Z,3.25
2018-02-13T14:30:43.299Z,3.95
2018-02-13T14:33:12.183Z,4.03
2018-02-13T14:35:44.619Z,4.07
2018-02-13T14:38:19.191Z,3.53
2018-02-13T14:40:52.415Z,3.20
2018-02-13T14:43:22.239Z,3.55
2018-02-13T14:45:52.927Z,3.85
2018-02-13T14:48:41.463Z,3.80
2018-02-13T14:51:11.399Z,5.60
2018-02-13T14:53:49.883Z,5.93
2018-02-13T14:56:24.803Z,6.43
2018-02-13T14:58:52.847Z,6.10
2018-02-13T15:01:38.335Z,7.05
2018-02-13T15:04:09.107Z,6.00
2018-02-13T15:06:37.111Z,6.18
2018-02-13T15:09:06.075Z,7.25
2018-02-13T15:11:44.107Z,5.32
2018-02-13T15:14:12.119Z,6.22
2018-02-13T15:16:42.555Z,6.32
2018-02-13T15:19:12.499Z,5.70
2018-02-13T15:21:44.051Z,5.70
2018-02-13T15:24:12.079Z,4.65
2018-02-13T15:26:40.091Z,3.72
2018-02-13T15:29:11.851Z,4.07
2018-02-13T15:31:40.759Z,4.00
2018-02-13T15:34:10.596Z,4.40
2018-02-13T15:36:42.604Z,4.20
2018-02-13T15:39:11.638Z,3.75
2018-02-13T15:41:39.622Z,4.65
2018-02-13T15:44:09.375Z,4.20
2018-02-13T15:46:38.371Z,3.40
2018-02-13T15:49:12.935Z,3.53
2018-02-13T15:51:41.707Z,4.10
2018-02-13T15:54:11.595Z,4.05
2018-02-13T15:56:39.595Z,3.60
2018-02-13T15:59:07.599Z,3.50
2018-02-13T16:01:48.775Z,3.97
2018-02-13T16:04:35.567Z,5.12
2018-02-13T16:07:12.685Z,4.28
2018-02-13T16:09:41.455Z,5.93
2018-02-13T16:12:11.398Z,6.30
2018-02-13T16:14:39.431Z,5.75
2018-02-13T16:17:09.386Z,5.20
2018-02-13T16:19:39.406Z,6.05
2018-02-13T16:22:11.983Z,6.28
2018-02-13T16:24:40.023Z,6.47
2018-02-13T16:27:11.435Z,6.25
2018-02-13T16:29:40.222Z,6.05
2018-02-13T16:32:09.991Z,6.87
2018-02-13T16:34:52.778Z,6.95
2018-02-13T16:37:22.703Z,7.00
2018-02-13T16:39:51.487Z,7.82
2018-02-13T16:42:33.370Z,8.15
2018-02-13T16:45:03.327Z,8.02
2018-02-13T16:47:35.894Z,6.78
2018-02-13T16:50:06.840Z,6.70
2018-02-13T16:52:36.855Z,6.35
2018-02-13T16:55:05.839Z,5.53
2018-02-13T16:57:34.550Z,7.25
2018-02-13T17:00:03.611Z,6.03
2018-02-13T17:02:35.518Z,6.35
2018-02-13T17:05:03.534Z,6.80
2018-02-13T17:07:38.882Z,7.00
2018-02-13T17:10:08.811Z,6.47
2018-02-13T17:12:37.807Z,8.25
2018-02-13T17:15:05.810Z,7.40
2018-02-13T17:17:34.591Z,8.25
2018-02-13T17:20:07.855Z,7.45
2018-02-13T17:22:35.879Z,8.38
2018-02-13T17:25:03.898Z,7.25
2018-02-13T17:27:36.478Z,6.80
2018-02-13T17:30:04.495Z,7.50
2018-02-13T17:32:32.517Z,6.70
2018-02-13T17:35:00.519Z,6.50
2018-02-13T17:37:32.318Z,6.75
2018-02-13T17:40:00.361Z,9.10
2018-02-13T17:42:30.262Z,8.77
2018-02-13T17:44:59.038Z,9.25
2018-02-13T17:47:29.026Z,7.87
2018-02-13T17:49:59.026Z,5.35
2018-02-13T17:52:27.043Z,8.85
2018-02-13T17:54:56.766Z,9.25
2018-02-13T17:57:25.644Z,11.10
2018-02-13T17:59:54.606Z,10.55
2018-02-13T18:02:23.430Z,11.43
2018-02-13T18:04:51.466Z,10.10
2018-02-13T18:07:23.072Z,10.02
2018-02-13T18:09:56.230Z,11.10
2018-02-13T18:12:29.142Z,11.23
2018-02-13T18:14:58.086Z,11.80
2018-02-13T18:17:33.378Z,12.63
2018-02-13T18:20:05.062Z,13.40
2018-02-13T18:22:36.425Z,14.57
2018-02-13T18:25:04.426Z,15.13
2018-02-13T18:27:34.190Z,13.60
2018-02-13T18:30:03.140Z,12.95
2018-02-13T18:32:37.390Z,15.27
2018-02-13T18:35:10.962Z,12.48
2018-02-13T18:37:39.898Z,13.93
2018-02-13T18:40:08.890Z,15.88
2018-02-13T18:42:38.898Z,15.95
2018-02-13T18:45:06.926Z,12.77
2018-02-13T18:47:40.478Z,13.10
2018-02-13T18:50:09.462Z,11.40
2018-02-13T18:55:07.161Z,11.50
2018-02-13T18:57:35.178Z,12.35
2018-02-13T19:00:03.214Z,13.32
2018-02-13T19:02:31.990Z,11.07
2018-02-13T19:05:00.034Z,10.05
2018-02-13T19:07:29.730Z,10.60
2018-02-13T19:10:00.897Z,11.55
2018-02-13T19:12:28.918Z,11.93
2018-02-13T19:14:56.981Z,10.25
2018-02-13T19:17:30.926Z,10.68
2018-02-13T19:19:58.949Z,11.95
2018-02-13T19:22:28.733Z,11.93
2018-02-13T19:24:57.725Z,9.77
2018-02-13T19:27:31.734Z,13.57
2018-02-13T19:30:03.070Z,11.75
2018-02-13T19:32:31.078Z,9.75
2018-02-13T19:34:59.098Z,11.55
2018-02-13T19:37:27.125Z,11.05
2018-02-13T19:40:02.701Z,11.98
2018-02-13T19:42:30.721Z,9.35
2018-02-13T19:44:59.686Z,8.27
2018-02-13T19:47:32.273Z,9.90
2018-02-13T19:50:11.978Z,10.15
2018-02-13T19:52:43.161Z,10.48
2018-02-13T19:55:11.163Z,9.02
2018-02-13T19:57:39.428Z,8.52
2018-02-13T20:00:17.166Z,8.32
2018-02-13T20:02:45.949Z,7.85
2018-02-13T20:05:17.405Z,9.02
2018-02-13T20:07:55.091Z,9.50
2018-02-13T20:10:24.218Z,9.05
2018-02-13T20:12:57.002Z,8.55
2018-02-13T20:15:30.195Z,7.82
2018-02-13T20:18:03.150Z,7.72
2018-02-13T20:20:33.090Z,8.55
2018-02-13T20:23:04.226Z,7.78
2018-02-13T20:25:35.198Z,9.50
2018-02-13T20:28:04.170Z,7.47
2018-02-13T20:30:42.770Z,9.52
2018-02-13T20:33:10.814Z,8.98
2018-02-13T20:35:41.793Z,11.73
2018-02-13T20:38:10.814Z,13.00
2018-02-13T20:40:40.610Z,16.27
2018-02-13T20:43:10.641Z,12.48
2018-02-13T20:45:38.633Z,16.20
2018-02-13T20:48:07.614Z,10.10
2018-02-13T20:50:36.446Z,8.40
2018-02-13T20:53:05.463Z,9.02
2018-02-13T20:55:33.725Z,10.88
2018-02-13T20:58:11.838Z,9.02
2018-02-13T21:00:40.898Z,11.30
2018-02-13T21:03:10.893Z,8.15
2018-02-13T21:05:41.613Z,10.77
2018-02-13T21:08:11.669Z,9.45
2018-02-13T21:10:40.741Z,9.30
2018-02-13T21:13:09.686Z,9.77
2018-02-13T21:15:37.838Z,9.30
2018-02-13T21:18:05.870Z,9.38
2018-02-13T21:20:35.590Z,9.40
2018-02-13T21:23:09.581Z,9.55
2018-02-13T21:25:38.401Z,10.35
2018-02-13T21:28:06.429Z,9.77
2018-02-13T21:30:36.417Z,11.57
2018-02-13T21:33:05.421Z,10.50
2018-02-13T21:35:36.781Z,8.80
2018-02-13T21:38:05.602Z,9.60
2018-02-13T21:40:38.313Z,11.60
2018-02-13T21:43:06.325Z,9.70
2018-02-13T21:45:37.341Z,7.18
2018-02-13T21:48:05.385Z,8.45
2018-02-13T21:50:38.038Z,9.52
2018-02-13T21:53:07.981Z,9.38
2018-02-13T21:55:36.018Z,9.05
2018-02-13T21:58:04.955Z,9.00
2018-02-13T22:00:33.009Z,9.05
2018-02-13T22:03:02.149Z,8.45
2018-02-13T22:05:31.929Z,10.25
2018-02-13T22:08:01.973Z,10.05
2018-02-13T22:10:33.721Z,9.50
2018-02-13T22:13:03.305Z,9.65
2018-02-13T22:15:34.994Z,10.25
2018-02-13T22:18:05.785Z,11.10
2018-02-13T22:20:39.213Z,9.88
2018-02-13T22:23:08.241Z,9.38
2018-02-13T22:25:38.033Z,8.68
2018-02-13T22:28:07.697Z,9.07
2018-02-13T22:30:35.713Z,9.43
2018-02-13T22:33:05.513Z,9.30
2018-02-13T22:35:34.469Z,8.60
2018-02-13T22:38:03.401Z,8.70
2018-02-13T22:40:34.121Z,9.35
2018-02-13T22:43:02.134Z,9.90
2018-02-13T22:45:30.197Z,9.20
2018-02-13T22:47:58.229Z,9.43
2018-02-13T22:50:26.255Z,8.70
2018-02-13T22:52:58.561Z,7.57
2018-02-13T22:55:26.629Z,9.57
2018-02-13T22:57:55.609Z,8.13
2018-02-13T23:00:24.617Z,9.10
2018-02-13T23:02:53.621Z,8.60
2018-02-13T23:05:21.666Z,10.40
2018-02-13T23:07:49.845Z,8.85
2018-02-13T23:10:17.861Z,8.85
2018-02-13T23:12:45.889Z,9.50
2018-02-13T23:15:13.922Z,7.20
2018-02-13T23:17:42.836Z,6.87
2018-02-13T23:20:16.345Z,8.80
2018-02-13T23:22:44.392Z,9.18
2018-02-13T23:25:12.413Z,8.65
2018-02-13T23:27:40.443Z,10.90
2018-02-13T23:30:09.474Z,8.23
2018-02-13T23:32:37.505Z,8.32
2018-02-13T23:35:08.821Z,9.63
2018-02-13T23:37:37.868Z,9.50
2018-02-13T23:40:05.941Z,9.13
2018-02-13T23:42:39.621Z,9.82
2018-02-13T23:45:10.681Z,11.57
2018-02-13T23:47:41.953Z,8.88
2018-02-13T23:50:10.761Z,8.27
2018-02-13T23:52:44.261Z,8.90
2018-02-13T23:55:14.217Z,8.27
2018-02-13T23:57:43.208Z,8.65
